sensor_id;sensor_type;location;lat;lon;timestamp;temperature;humidity
44271;DHT22;29963;44.594;11.368;2023-05-10T00:02:06;18.20;99.90
44271;DHT22;29963;44.594;11.368;2023-05-10T00:04:32;18.20;99.90
44271;DHT22;29963;44.594;11.368;2023-05-10T00:06:58;18.10;99.90
44271;DHT22;29963;44.594;11.368;2023-05-10T00:09:23;18.20;99.90
44271;DHT22;29963;44.594;11.368;2023-05-10T00:11:49;18.20;99.90
44271;DHT22;29963;44.594;11.368;2023-05-10T00:14:15;18.20;99.90
44271;DHT22;29963;44.594;11.368;2023-05-10T00:16:40;18.20;99.90
44271;DHT22;29963;44.594;11.368;2023-05-10T00:19:06;18.10;99.90
44271;DHT22;29963;44.594;11.368;2023-05-10T00:21:32;18.10;99.90
44271;DHT22;29963;44.594;11.368;2023-05-10T00:23:59;18.10;99.90
44271;DHT22;29963;44.594;11.368;2023-05-10T00:26:25;18.10;99.90
44271;DHT22;29963;44.594;11.368;2023-05-10T00:28:50;18.10;99.90
44271;DHT22;29963;44.594;11.368;2023-05-10T00:31:16;18.00;99.90
44271;DHT22;29963;44.594;11.368;2023-05-10T00:33:42;18.10;99.90
44271;DHT22;29963;44.594;11.368;2023-05-10T00:36:08;18.00;99.90
44271;DHT22;29963;44.594;11.368;2023-05-10T00:38:34;18.10;99.90
44271;DHT22;29963;44.594;11.368;2023-05-10T00:41:00;18.10;99.90
44271;DHT22;29963;44.594;11.368;2023-05-10T00:43:26;18.10;99.90
44271;DHT22;29963;44.594;11.368;2023-05-10T00:45:52;18.10;99.90
44271;DHT22;29963;44.594;11.368;2023-05-10T00:48:18;18.00;99.90
44271;DHT22;29963;44.594;11.368;2023-05-10T00:50:44;18.00;99.90
44271;DHT22;29963;44.594;11.368;2023-05-10T00:53:10;18.00;99.90
44271;DHT22;29963;44.594;11.368;2023-05-10T00:55:36;18.00;99.90
44271;DHT22;29963;44.594;11.368;2023-05-10T00:58:03;18.00;99.90
44271;DHT22;29963;44.594;11.368;2023-05-10T01:00:28;18.00;99.90
44271;DHT22;29963;44.594;11.368;2023-05-10T01:02:55;18.00;99.90
44271;DHT22;29963;44.594;11.368;2023-05-10T01:05:21;17.90;99.90
44271;DHT22;29963;44.594;11.368;2023-05-10T01:07:46;17.90;99.90
44271;DHT22;29963;44.594;11.368;2023-05-10T01:10:12;17.90;99.90
44271;DHT22;29963;44.594;11.368;2023-05-10T01:12:41;17.90;99.90
44271;DHT22;29963;44.594;11.368;2023-05-10T01:15:08;17.90;99.90
44271;DHT22;29963;44.594;11.368;2023-05-10T01:17:39;17.90;99.90
44271;DHT22;29963;44.594;11.368;2023-05-10T01:20:07;17.90;99.90
44271;DHT22;29963;44.594;11.368;2023-05-10T01:25:32;17.80;99.90
44271;DHT22;29963;44.594;11.368;2023-05-10T01:39:04;17.80;99.90
44271;DHT22;29963;44.594;11.368;2023-05-10T01:41:59;17.80;99.90
44271;DHT22;29963;44.594;11.368;2023-05-10T01:44:40;17.80;99.90
44271;DHT22;29963;44.594;11.368;2023-05-10T01:47:14;17.80;99.90
44271;DHT22;29963;44.594;11.368;2023-05-10T01:49:47;17.70;99.90
44271;DHT22;29963;44.594;11.368;2023-05-10T01:52:17;17.70;99.90
44271;DHT22;29963;44.594;11.368;2023-05-10T01:54:56;17.70;99.90
44271;DHT22;29963;44.594;11.368;2023-05-10T01:57:26;17.60;99.90
44271;DHT22;29963;44.594;11.368;2023-05-10T01:59:53;17.50;99.90
44271;DHT22;29963;44.594;11.368;2023-05-10T02:02:21;17.50;99.90
44271;DHT22;29963;44.594;11.368;2023-05-10T02:04:49;17.40;99.90
44271;DHT22;29963;44.594;11.368;2023-05-10T02:10:02;17.40;99.90
44271;DHT22;29963;44.594;11.368;2023-05-10T02:12:28;17.40;99.90
44271;DHT22;29963;44.594;11.368;2023-05-10T02:14:56;17.40;99.90
44271;DHT22;29963;44.594;11.368;2023-05-10T02:17:23;17.50;99.90
44271;DHT22;29963;44.594;11.368;2023-05-10T02:19:51;17.40;99.90
44271;DHT22;29963;44.594;11.368;2023-05-10T02:22:18;17.40;99.90
44271;DHT22;29963;44.594;11.368;2023-05-10T02:24:44;17.40;99.90
44271;DHT22;29963;44.594;11.368;2023-05-10T02:27:11;17.40;99.90
44271;DHT22;29963;44.594;11.368;2023-05-10T02:29:38;17.30;99.90
44271;DHT22;29963;44.594;11.368;2023-05-10T02:32:04;17.30;99.90
44271;DHT22;29963;44.594;11.368;2023-05-10T02:34:30;17.40;99.90
44271;DHT22;29963;44.594;11.368;2023-05-10T02:36:56;17.40;99.90
44271;DHT22;29963;44.594;11.368;2023-05-10T02:39:23;17.30;99.90
44271;DHT22;29963;44.594;11.368;2023-05-10T02:41:50;17.30;99.90
44271;DHT22;29963;44.594;11.368;2023-05-10T02:44:20;17.30;99.90
44271;DHT22;29963;44.594;11.368;2023-05-10T02:46:47;17.30;99.90
44271;DHT22;29963;44.594;11.368;2023-05-10T02:49:13;17.30;99.90
44271;DHT22;29963;44.594;11.368;2023-05-10T02:51:47;17.40;99.90
44271;DHT22;29963;44.594;11.368;2023-05-10T02:54:19;17.30;99.90
44271;DHT22;29963;44.594;11.368;2023-05-10T02:56:52;17.30;99.90
44271;DHT22;29963;44.594;11.368;2023-05-10T02:59:20;17.30;99.90
44271;DHT22;29963;44.594;11.368;2023-05-10T03:01:46;17.30;99.90
44271;DHT22;29963;44.594;11.368;2023-05-10T03:04:11;17.30;99.90
44271;DHT22;29963;44.594;11.368;2023-05-10T03:06:37;17.30;99.90
44271;DHT22;29963;44.594;11.368;2023-05-10T03:09:03;17.20;99.90
44271;DHT22;29963;44.594;11.368;2023-05-10T03:14:45;17.20;99.90
44271;DHT22;29963;44.594;11.368;2023-05-10T03:17:23;17.20;99.90
44271;DHT22;29963;44.594;11.368;2023-05-10T03:19:57;17.10;99.90
44271;DHT22;29963;44.594;11.368;2023-05-10T03:22:31;17.20;99.90
44271;DHT22;29963;44.594;11.368;2023-05-10T03:24:58;17.20;99.90
44271;DHT22;29963;44.594;11.368;2023-05-10T03:27:26;17.10;99.90
44271;DHT22;29963;44.594;11.368;2023-05-10T03:29:54;17.10;99.90
44271;DHT22;29963;44.594;11.368;2023-05-10T03:32:20;17.10;99.90
44271;DHT22;29963;44.594;11.368;2023-05-10T03:34:45;17.10;99.90
44271;DHT22;29963;44.594;11.368;2023-05-10T03:37:11;17.00;99.90
44271;DHT22;29963;44.594;11.368;2023-05-10T03:39:37;17.00;99.90
44271;DHT22;29963;44.594;11.368;2023-05-10T03:42:02;17.10;99.90
44271;DHT22;29963;44.594;11.368;2023-05-10T03:44:28;17.10;99.90
44271;DHT22;29963;44.594;11.368;2023-05-10T03:46:53;17.10;99.90
44271;DHT22;29963;44.594;11.368;2023-05-10T03:49:19;17.00;99.90
44271;DHT22;29963;44.594;11.368;2023-05-10T03:51:45;17.00;99.90
44271;DHT22;29963;44.594;11.368;2023-05-10T03:54:10;17.00;99.90
44271;DHT22;29963;44.594;11.368;2023-05-10T03:56:36;16.90;99.90
44271;DHT22;29963;44.594;11.368;2023-05-10T03:59:01;16.90;99.90
44271;DHT22;29963;44.594;11.368;2023-05-10T04:01:33;16.90;99.90
44271;DHT22;29963;44.594;11.368;2023-05-10T04:03:58;16.90;99.90
44271;DHT22;29963;44.594;11.368;2023-05-10T04:06:24;16.80;99.90
44271;DHT22;29963;44.594;11.368;2023-05-10T04:08:49;16.80;99.90
44271;DHT22;29963;44.594;11.368;2023-05-10T04:11:15;16.80;99.90
44271;DHT22;29963;44.594;11.368;2023-05-10T04:13:41;16.80;99.90
44271;DHT22;29963;44.594;11.368;2023-05-10T04:16:06;16.80;99.90
44271;DHT22;29963;44.594;11.368;2023-05-10T04:18:32;16.70;99.90
44271;DHT22;29963;44.594;11.368;2023-05-10T04:20:58;16.70;99.90
44271;DHT22;29963;44.594;11.368;2023-05-10T04:23:23;16.70;99.90
44271;DHT22;29963;44.594;11.368;2023-05-10T04:25:49;16.70;99.90
44271;DHT22;29963;44.594;11.368;2023-05-10T04:28:14;16.70;99.90
44271;DHT22;29963;44.594;11.368;2023-05-10T04:30:40;16.70;99.90
44271;DHT22;29963;44.594;11.368;2023-05-10T04:33:06;16.70;99.90
44271;DHT22;29963;44.594;11.368;2023-05-10T04:35:31;16.60;99.90
44271;DHT22;29963;44.594;11.368;2023-05-10T04:37:57;16.60;99.90
44271;DHT22;29963;44.594;11.368;2023-05-10T04:40:22;16.60;99.90
44271;DHT22;29963;44.594;11.368;2023-05-10T04:42:48;16.60;99.90
44271;DHT22;29963;44.594;11.368;2023-05-10T04:45:14;16.60;99.90
44271;DHT22;29963;44.594;11.368;2023-05-10T04:47:42;16.60;99.90
44271;DHT22;29963;44.594;11.368;2023-05-10T04:50:08;16.60;99.90
44271;DHT22;29963;44.594;11.368;2023-05-10T04:52:34;16.60;99.90
44271;DHT22;29963;44.594;11.368;2023-05-10T04:54:59;16.50;99.90
44271;DHT22;29963;44.594;11.368;2023-05-10T04:57:25;16.50;99.90
44271;DHT22;29963;44.594;11.368;2023-05-10T04:59:51;16.50;99.90
44271;DHT22;29963;44.594;11.368;2023-05-10T05:02:17;16.50;99.90
44271;DHT22;29963;44.594;11.368;2023-05-10T05:04:42;16.50;99.90
44271;DHT22;29963;44.594;11.368;2023-05-10T05:07:08;16.50;99.90
44271;DHT22;29963;44.594;11.368;2023-05-10T05:09:34;16.50;99.90
44271;DHT22;29963;44.594;11.368;2023-05-10T05:11:59;16.50;99.90
44271;DHT22;29963;44.594;11.368;2023-05-10T05:14:25;16.50;99.90
44271;DHT22;29963;44.594;11.368;2023-05-10T05:16:54;16.50;99.90
44271;DHT22;29963;44.594;11.368;2023-05-10T05:19:19;16.50;99.90
44271;DHT22;29963;44.594;11.368;2023-05-10T05:21:45;16.60;99.90
44271;DHT22;29963;44.594;11.368;2023-05-10T05:24:11;16.60;99.90
44271;DHT22;29963;44.594;11.368;2023-05-10T05:26:38;16.60;99.90
44271;DHT22;29963;44.594;11.368;2023-05-10T05:29:03;16.60;99.90
44271;DHT22;29963;44.594;11.368;2023-05-10T05:31:29;16.60;99.90
44271;DHT22;29963;44.594;11.368;2023-05-10T05:33:55;16.60;99.90
44271;DHT22;29963;44.594;11.368;2023-05-10T05:36:21;16.60;99.90
44271;DHT22;29963;44.594;11.368;2023-05-10T05:38:46;16.50;99.90
44271;DHT22;29963;44.594;11.368;2023-05-10T05:41:12;16.50;99.90
44271;DHT22;29963;44.594;11.368;2023-05-10T05:43:38;16.50;99.90
44271;DHT22;29963;44.594;11.368;2023-05-10T05:46:03;16.50;99.90
44271;DHT22;29963;44.594;11.368;2023-05-10T05:48:30;16.50;99.90
44271;DHT22;29963;44.594;11.368;2023-05-10T05:50:56;16.50;99.90
44271;DHT22;29963;44.594;11.368;2023-05-10T05:53:22;16.50;99.90
44271;DHT22;29963;44.594;11.368;2023-05-10T05:55:56;16.50;99.90
44271;DHT22;29963;44.594;11.368;2023-05-10T05:58:22;16.50;99.90
44271;DHT22;29963;44.594;11.368;2023-05-10T06:00:49;16.50;99.90
44271;DHT22;29963;44.594;11.368;2023-05-10T06:03:14;16.50;99.90
44271;DHT22;29963;44.594;11.368;2023-05-10T06:05:40;16.60;99.90
44271;DHT22;29963;44.594;11.368;2023-05-10T06:08:06;16.50;99.90
44271;DHT22;29963;44.594;11.368;2023-05-10T06:10:32;16.50;99.90
44271;DHT22;29963;44.594;11.368;2023-05-10T06:12:57;16.60;99.90
44271;DHT22;29963;44.594;11.368;2023-05-10T06:15:23;16.60;99.90
44271;DHT22;29963;44.594;11.368;2023-05-10T06:17:48;16.60;99.90
44271;DHT22;29963;44.594;11.368;2023-05-10T06:20:15;16.60;99.90
44271;DHT22;29963;44.594;11.368;2023-05-10T06:22:41;16.60;99.90
44271;DHT22;29963;44.594;11.368;2023-05-10T06:25:07;16.60;99.90
44271;DHT22;29963;44.594;11.368;2023-05-10T06:27:33;16.60;99.90
44271;DHT22;29963;44.594;11.368;2023-05-10T06:29:59;16.60;99.90
44271;DHT22;29963;44.594;11.368;2023-05-10T06:32:24;16.50;99.90
44271;DHT22;29963;44.594;11.368;2023-05-10T06:34:50;16.50;99.90
44271;DHT22;29963;44.594;11.368;2023-05-10T06:37:16;16.50;99.90
44271;DHT22;29963;44.594;11.368;2023-05-10T06:39:42;16.50;99.90
44271;DHT22;29963;44.594;11.368;2023-05-10T06:42:07;16.50;99.90
44271;DHT22;29963;44.594;11.368;2023-05-10T06:44:33;16.50;99.90
44271;DHT22;29963;44.594;11.368;2023-05-10T06:46:59;16.50;99.90
44271;DHT22;29963;44.594;11.368;2023-05-10T06:49:24;16.50;99.90
44271;DHT22;29963;44.594;11.368;2023-05-10T06:51:50;16.60;99.90
44271;DHT22;29963;44.594;11.368;2023-05-10T06:54:15;16.60;99.90
44271;DHT22;29963;44.594;11.368;2023-05-10T06:56:41;16.60;99.90
44271;DHT22;29963;44.594;11.368;2023-05-10T06:59:07;16.60;99.90
44271;DHT22;29963;44.594;11.368;2023-05-10T07:01:32;16.50;99.90
44271;DHT22;29963;44.594;11.368;2023-05-10T07:03:58;16.50;99.90
44271;DHT22;29963;44.594;11.368;2023-05-10T07:06:24;16.50;99.90
44271;DHT22;29963;44.594;11.368;2023-05-10T07:08:49;16.50;99.90
44271;DHT22;29963;44.594;11.368;2023-05-10T07:11:15;16.50;99.90
44271;DHT22;29963;44.594;11.368;2023-05-10T07:13:40;16.50;99.90
44271;DHT22;29963;44.594;11.368;2023-05-10T07:16:09;16.40;99.90
44271;DHT22;29963;44.594;11.368;2023-05-10T07:18:35;16.40;99.90
44271;DHT22;29963;44.594;11.368;2023-05-10T07:21:01;16.50;99.90
44271;DHT22;29963;44.594;11.368;2023-05-10T07:23:27;16.50;99.90
44271;DHT22;29963;44.594;11.368;2023-05-10T07:25:53;16.50;99.90
44271;DHT22;29963;44.594;11.368;2023-05-10T07:28:19;16.40;99.90
44271;DHT22;29963;44.594;11.368;2023-05-10T07:30:45;16.40;99.90
44271;DHT22;29963;44.594;11.368;2023-05-10T07:33:13;16.40;99.90
44271;DHT22;29963;44.594;11.368;2023-05-10T07:35:39;16.30;99.90
44271;DHT22;29963;44.594;11.368;2023-05-10T07:38:05;16.40;99.90
44271;DHT22;29963;44.594;11.368;2023-05-10T07:40:31;16.30;99.90
44271;DHT22;29963;44.594;11.368;2023-05-10T07:42:57;16.30;99.90
44271;DHT22;29963;44.594;11.368;2023-05-10T07:45:22;16.30;99.90
44271;DHT22;29963;44.594;11.368;2023-05-10T07:47:49;16.30;99.90
44271;DHT22;29963;44.594;11.368;2023-05-10T07:50:14;16.30;99.90
44271;DHT22;29963;44.594;11.368;2023-05-10T07:52:41;16.20;99.90
44271;DHT22;29963;44.594;11.368;2023-05-10T07:55:07;16.20;99.90
44271;DHT22;29963;44.594;11.368;2023-05-10T07:57:36;16.30;99.90
44271;DHT22;29963;44.594;11.368;2023-05-10T08:00:02;16.30;99.90
44271;DHT22;29963;44.594;11.368;2023-05-10T08:02:28;16.30;99.90
44271;DHT22;29963;44.594;11.368;2023-05-10T08:04:53;16.30;99.90
44271;DHT22;29963;44.594;11.368;2023-05-10T08:07:19;16.30;99.90
44271;DHT22;29963;44.594;11.368;2023-05-10T08:09:45;16.30;99.90
44271;DHT22;29963;44.594;11.368;2023-05-10T08:12:10;16.40;99.90
44271;DHT22;29963;44.594;11.368;2023-05-10T08:14:36;16.40;99.90
44271;DHT22;29963;44.594;11.368;2023-05-10T08:17:04;16.40;99.90
44271;DHT22;29963;44.594;11.368;2023-05-10T08:19:30;16.40;99.90
44271;DHT22;29963;44.594;11.368;2023-05-10T08:21:56;16.40;99.90
44271;DHT22;29963;44.594;11.368;2023-05-10T08:24:22;16.30;99.90
44271;DHT22;29963;44.594;11.368;2023-05-10T08:26:48;16.30;99.90
44271;DHT22;29963;44.594;11.368;2023-05-10T08:29:14;16.30;99.90
44271;DHT22;29963;44.594;11.368;2023-05-10T08:31:40;16.30;99.90
44271;DHT22;29963;44.594;11.368;2023-05-10T08:34:05;16.30;99.90
44271;DHT22;29963;44.594;11.368;2023-05-10T08:36:31;16.40;99.90
44271;DHT22;29963;44.594;11.368;2023-05-10T08:38:57;16.40;99.90
44271;DHT22;29963;44.594;11.368;2023-05-10T08:41:24;16.40;99.90
44271;DHT22;29963;44.594;11.368;2023-05-10T08:43:51;16.50;99.90
44271;DHT22;29963;44.594;11.368;2023-05-10T08:46:18;16.40;99.90
44271;DHT22;29963;44.594;11.368;2023-05-10T08:48:45;16.40;99.90
44271;DHT22;29963;44.594;11.368;2023-05-10T08:51:24;16.40;99.90
44271;DHT22;29963;44.594;11.368;2023-05-10T08:53:52;16.40;99.90
44271;DHT22;29963;44.594;11.368;2023-05-10T08:56:18;16.40;99.90
44271;DHT22;29963;44.594;11.368;2023-05-10T08:58:45;16.40;99.90
44271;DHT22;29963;44.594;11.368;2023-05-10T09:01:11;16.30;99.90
44271;DHT22;29963;44.594;11.368;2023-05-10T09:03:38;16.30;99.90
44271;DHT22;29963;44.594;11.368;2023-05-10T09:06:04;16.30;99.90
44271;DHT22;29963;44.594;11.368;2023-05-10T09:08:30;16.30;99.90
44271;DHT22;29963;44.594;11.368;2023-05-10T09:10:57;16.30;99.90
44271;DHT22;29963;44.594;11.368;2023-05-10T09:13:23;16.20;99.90
44271;DHT22;29963;44.594;11.368;2023-05-10T09:15:50;16.10;99.90
44271;DHT22;29963;44.594;11.368;2023-05-10T09:18:16;16.10;99.90
44271;DHT22;29963;44.594;11.368;2023-05-10T09:20:42;16.10;99.90
44271;DHT22;29963;44.594;11.368;2023-05-10T09:23:08;16.10;99.90
44271;DHT22;29963;44.594;11.368;2023-05-10T09:25:34;16.00;99.90
44271;DHT22;29963;44.594;11.368;2023-05-10T09:27:59;16.00;99.90
44271;DHT22;29963;44.594;11.368;2023-05-10T09:30:29;16.00;99.90
44271;DHT22;29963;44.594;11.368;2023-05-10T09:32:57;15.90;99.90
44271;DHT22;29963;44.594;11.368;2023-05-10T09:35:26;15.90;99.90
44271;DHT22;29963;44.594;11.368;2023-05-10T09:37:54;15.90;99.90
44271;DHT22;29963;44.594;11.368;2023-05-10T09:40:21;15.80;99.90
44271;DHT22;29963;44.594;11.368;2023-05-10T09:43:01;15.80;99.90
44271;DHT22;29963;44.594;11.368;2023-05-10T09:45:32;15.80;99.90
44271;DHT22;29963;44.594;11.368;2023-05-10T09:47:58;15.90;99.90
44271;DHT22;29963;44.594;11.368;2023-05-10T09:50:25;16.00;99.90
44271;DHT22;29963;44.594;11.368;2023-05-10T09:52:51;16.00;99.90
44271;DHT22;29963;44.594;11.368;2023-05-10T09:55:40;16.00;99.90
44271;DHT22;29963;44.594;11.368;2023-05-10T09:58:06;16.10;99.90
44271;DHT22;29963;44.594;11.368;2023-05-10T10:00:40;16.00;99.90
44271;DHT22;29963;44.594;11.368;2023-05-10T10:03:07;16.10;99.90
44271;DHT22;29963;44.594;11.368;2023-05-10T10:05:40;16.10;99.90
44271;DHT22;29963;44.594;11.368;2023-05-10T10:08:06;16.10;99.90
44271;DHT22;29963;44.594;11.368;2023-05-10T10:10:33;16.10;99.90
44271;DHT22;29963;44.594;11.368;2023-05-10T10:12:59;16.10;99.90
44271;DHT22;29963;44.594;11.368;2023-05-10T10:15:25;16.10;99.90
44271;DHT22;29963;44.594;11.368;2023-05-10T10:17:52;16.00;99.90
44271;DHT22;29963;44.594;11.368;2023-05-10T10:20:19;16.00;99.90
44271;DHT22;29963;44.594;11.368;2023-05-10T10:22:45;16.00;99.90
44271;DHT22;29963;44.594;11.368;2023-05-10T10:25:12;16.00;99.90
44271;DHT22;29963;44.594;11.368;2023-05-10T10:35:32;15.80;99.90
44271;DHT22;29963;44.594;11.368;2023-05-10T10:37:58;15.80;99.90
44271;DHT22;29963;44.594;11.368;2023-05-10T10:40:26;15.70;99.90
44271;DHT22;29963;44.594;11.368;2023-05-10T10:42:52;15.70;99.90
44271;DHT22;29963;44.594;11.368;2023-05-10T10:45:19;15.60;99.90
44271;DHT22;29963;44.594;11.368;2023-05-10T10:47:45;15.50;99.90
44271;DHT22;29963;44.594;11.368;2023-05-10T10:50:11;15.50;99.90
44271;DHT22;29963;44.594;11.368;2023-05-10T10:52:45;15.50;99.90
44271;DHT22;29963;44.594;11.368;2023-05-10T10:55:18;15.50;99.90
44271;DHT22;29963;44.594;11.368;2023-05-10T11:00:30;15.40;99.90
44271;DHT22;29963;44.594;11.368;2023-05-10T11:03:09;15.40;99.90
44271;DHT22;29963;44.594;11.368;2023-05-10T11:05:57;15.40;99.90
44271;DHT22;29963;44.594;11.368;2023-05-10T11:08:31;15.40;99.90
44271;DHT22;29963;44.594;11.368;2023-05-10T11:13:45;15.40;99.90
44271;DHT22;29963;44.594;11.368;2023-05-10T11:16:18;15.40;99.90
44271;DHT22;29963;44.594;11.368;2023-05-10T11:21:20;15.40;99.90
44271;DHT22;29963;44.594;11.368;2023-05-10T11:23:49;15.30;99.90
44271;DHT22;29963;44.594;11.368;2023-05-10T11:26:15;15.30;99.90
44271;DHT22;29963;44.594;11.368;2023-05-10T11:28:48;15.30;99.90
44271;DHT22;29963;44.594;11.368;2023-05-10T11:31:17;15.20;99.90
44271;DHT22;29963;44.594;11.368;2023-05-10T11:33:49;15.10;99.90
44271;DHT22;29963;44.594;11.368;2023-05-10T11:36:21;15.10;99.90
44271;DHT22;29963;44.594;11.368;2023-05-10T11:38:47;15.10;99.90
44271;DHT22;29963;44.594;11.368;2023-05-10T11:41:14;15.20;99.90
44271;DHT22;29963;44.594;11.368;2023-05-10T11:43:40;15.00;99.90
44271;DHT22;29963;44.594;11.368;2023-05-10T11:46:07;15.00;99.90
44271;DHT22;29963;44.594;11.368;2023-05-10T11:48:33;15.00;99.90
44271;DHT22;29963;44.594;11.368;2023-05-10T11:51:01;14.90;99.90
44271;DHT22;29963;44.594;11.368;2023-05-10T11:53:28;14.80;99.90
44271;DHT22;29963;44.594;11.368;2023-05-10T11:55:54;14.70;99.90
44271;DHT22;29963;44.594;11.368;2023-05-10T11:58:20;14.70;99.90
44271;DHT22;29963;44.594;11.368;2023-05-10T12:00:47;14.60;99.90
44271;DHT22;29963;44.594;11.368;2023-05-10T12:03:13;14.60;99.90
44271;DHT22;29963;44.594;11.368;2023-05-10T12:05:39;14.50;99.90
44271;DHT22;29963;44.594;11.368;2023-05-10T12:08:20;14.40;99.90
44271;DHT22;29963;44.594;11.368;2023-05-10T12:10:46;14.40;99.90
44271;DHT22;29963;44.594;11.368;2023-05-10T12:13:13;14.30;99.90
44271;DHT22;29963;44.594;11.368;2023-05-10T12:15:39;14.30;99.90
44271;DHT22;29963;44.594;11.368;2023-05-10T12:18:05;14.30;99.90
44271;DHT22;29963;44.594;11.368;2023-05-10T12:20:33;14.30;99.90
44271;DHT22;29963;44.594;11.368;2023-05-10T12:22:59;14.20;99.90
44271;DHT22;29963;44.594;11.368;2023-05-10T12:25:32;14.10;99.90
44271;DHT22;29963;44.594;11.368;2023-05-10T12:27:59;14.10;99.90
44271;DHT22;29963;44.594;11.368;2023-05-10T12:30:30;14.10;99.90
44271;DHT22;29963;44.594;11.368;2023-05-10T12:33:13;14.10;99.90
44271;DHT22;29963;44.594;11.368;2023-05-10T12:35:49;14.20;99.90
44271;DHT22;29963;44.594;11.368;2023-05-10T12:38:35;14.20;99.90
44271;DHT22;29963;44.594;11.368;2023-05-10T12:41:07;14.10;99.90
44271;DHT22;29963;44.594;11.368;2023-05-10T12:43:34;14.10;99.90
44271;DHT22;29963;44.594;11.368;2023-05-10T12:46:10;14.10;99.90
44271;DHT22;29963;44.594;11.368;2023-05-10T12:48:37;14.10;99.90
44271;DHT22;29963;44.594;11.368;2023-05-10T12:51:04;14.00;99.90
44271;DHT22;29963;44.594;11.368;2023-05-10T12:53:30;14.10;99.90
44271;DHT22;29963;44.594;11.368;2023-05-10T12:55:55;14.00;99.90
44271;DHT22;29963;44.594;11.368;2023-05-10T12:58:21;14.00;99.90
44271;DHT22;29963;44.594;11.368;2023-05-10T13:00:47;14.00;99.90
44271;DHT22;29963;44.594;11.368;2023-05-10T13:03:13;13.90;99.90
44271;DHT22;29963;44.594;11.368;2023-05-10T13:05:38;13.90;99.90
44271;DHT22;29963;44.594;11.368;2023-05-10T13:08:04;13.80;99.90
44271;DHT22;29963;44.594;11.368;2023-05-10T13:10:30;13.80;99.90
44271;DHT22;29963;44.594;11.368;2023-05-10T13:12:57;13.70;99.90
44271;DHT22;29963;44.594;11.368;2023-05-10T13:15:23;13.80;99.90
44271;DHT22;29963;44.594;11.368;2023-05-10T13:17:49;13.90;99.90
44271;DHT22;29963;44.594;11.368;2023-05-10T13:20:15;13.90;99.90
44271;DHT22;29963;44.594;11.368;2023-05-10T13:22:42;13.80;99.90
44271;DHT22;29963;44.594;11.368;2023-05-10T13:25:08;13.90;99.90
44271;DHT22;29963;44.594;11.368;2023-05-10T13:27:34;13.90;99.90
44271;DHT22;29963;44.594;11.368;2023-05-10T13:30:01;13.90;99.90
44271;DHT22;29963;44.594;11.368;2023-05-10T13:32:28;14.00;99.90
44271;DHT22;29963;44.594;11.368;2023-05-10T13:34:54;13.90;99.90
44271;DHT22;29963;44.594;11.368;2023-05-10T13:37:20;13.90;99.90
44271;DHT22;29963;44.594;11.368;2023-05-10T13:39:46;13.70;99.90
44271;DHT22;29963;44.594;11.368;2023-05-10T13:42:12;13.70;99.90
44271;DHT22;29963;44.594;11.368;2023-05-10T13:44:38;13.80;99.90
44271;DHT22;29963;44.594;11.368;2023-05-10T13:47:04;13.80;99.90
44271;DHT22;29963;44.594;11.368;2023-05-10T13:49:30;13.80;99.90
44271;DHT22;29963;44.594;11.368;2023-05-10T13:51:55;13.80;99.90
44271;DHT22;29963;44.594;11.368;2023-05-10T13:54:21;13.80;99.90
44271;DHT22;29963;44.594;11.368;2023-05-10T13:56:47;13.90;99.90
44271;DHT22;29963;44.594;11.368;2023-05-10T13:59:14;13.90;99.90
44271;DHT22;29963;44.594;11.368;2023-05-10T14:01:40;14.00;99.90
44271;DHT22;29963;44.594;11.368;2023-05-10T14:04:05;14.00;99.90
44271;DHT22;29963;44.594;11.368;2023-05-10T14:06:32;14.00;99.90
44271;DHT22;29963;44.594;11.368;2023-05-10T14:08:58;14.00;99.90
44271;DHT22;29963;44.594;11.368;2023-05-10T14:11:24;14.00;99.90
44271;DHT22;29963;44.594;11.368;2023-05-10T14:13:49;14.00;99.90
44271;DHT22;29963;44.594;11.368;2023-05-10T14:16:15;14.10;99.90
44271;DHT22;29963;44.594;11.368;2023-05-10T14:18:41;14.10;99.90
44271;DHT22;29963;44.594;11.368;2023-05-10T14:21:07;14.10;99.90
44271;DHT22;29963;44.594;11.368;2023-05-10T14:23:32;14.20;99.90
44271;DHT22;29963;44.594;11.368;2023-05-10T14:25:58;14.20;99.90
44271;DHT22;29963;44.594;11.368;2023-05-10T14:28:23;14.20;99.90
44271;DHT22;29963;44.594;11.368;2023-05-10T14:30:50;14.20;99.90
44271;DHT22;29963;44.594;11.368;2023-05-10T14:33:16;14.30;99.90
44271;DHT22;29963;44.594;11.368;2023-05-10T14:35:42;14.20;99.90
44271;DHT22;29963;44.594;11.368;2023-05-10T14:38:08;14.20;99.90
44271;DHT22;29963;44.594;11.368;2023-05-10T14:40:34;14.20;99.90
44271;DHT22;29963;44.594;11.368;2023-05-10T14:43:00;14.20;99.90
44271;DHT22;29963;44.594;11.368;2023-05-10T14:45:26;14.20;99.90
44271;DHT22;29963;44.594;11.368;2023-05-10T14:47:51;14.30;99.90
44271;DHT22;29963;44.594;11.368;2023-05-10T14:50:17;14.20;99.90
44271;DHT22;29963;44.594;11.368;2023-05-10T14:52:43;14.20;99.90
44271;DHT22;29963;44.594;11.368;2023-05-10T14:55:09;14.10;99.90
44271;DHT22;29963;44.594;11.368;2023-05-10T14:57:35;14.10;99.90
44271;DHT22;29963;44.594;11.368;2023-05-10T15:00:01;14.10;99.90
44271;DHT22;29963;44.594;11.368;2023-05-10T15:02:27;14.10;99.90
44271;DHT22;29963;44.594;11.368;2023-05-10T15:04:53;14.10;99.90
44271;DHT22;29963;44.594;11.368;2023-05-10T15:07:19;14.10;99.90
44271;DHT22;29963;44.594;11.368;2023-05-10T15:09:45;14.20;99.90
44271;DHT22;29963;44.594;11.368;2023-05-10T15:12:10;14.20;99.90
44271;DHT22;29963;44.594;11.368;2023-05-10T15:14:36;14.20;99.90
44271;DHT22;29963;44.594;11.368;2023-05-10T15:17:02;14.10;99.90
44271;DHT22;29963;44.594;11.368;2023-05-10T15:19:28;14.10;99.90
44271;DHT22;29963;44.594;11.368;2023-05-10T15:21:54;14.20;99.90
44271;DHT22;29963;44.594;11.368;2023-05-10T15:24:21;14.10;99.90
44271;DHT22;29963;44.594;11.368;2023-05-10T15:26:47;14.20;99.90
44271;DHT22;29963;44.594;11.368;2023-05-10T15:29:13;14.20;99.90
44271;DHT22;29963;44.594;11.368;2023-05-10T15:31:48;14.10;99.90
44271;DHT22;29963;44.594;11.368;2023-05-10T15:34:14;14.10;99.90
44271;DHT22;29963;44.594;11.368;2023-05-10T15:36:40;14.10;99.90
44271;DHT22;29963;44.594;11.368;2023-05-10T15:39:05;14.10;99.90
44271;DHT22;29963;44.594;11.368;2023-05-10T15:41:31;14.10;99.90
44271;DHT22;29963;44.594;11.368;2023-05-10T15:43:58;14.20;99.90
44271;DHT22;29963;44.594;11.368;2023-05-10T15:46:29;14.20;99.90
44271;DHT22;29963;44.594;11.368;2023-05-10T15:48:58;14.20;99.90
44271;DHT22;29963;44.594;11.368;2023-05-10T15:51:25;14.20;99.90